Time;durP1;ratioP1;P1;durP2;ratioP2;P2;SDS_P1;SDS_P2;PMS_P1;PMS_P2;Temp;Humidity;BMP_temperature;BMP_pressure;BME280_temperature;BME280_humidity;BME280_pressure;Samples;Min_cycle;Max_cycle;Signal;HPM_P1;HPM_P2
2024/03/12 00:01:26;;;;;;;23.00;10.60;;;;;;;0.05;46.07;100123.66;106758;1264;60017;-37
2024/03/12 00:03:54;;;;;;;19.80;10.80;;;;;;;0.06;45.83;100123.60;106783;1262;73028;-37
2024/03/12 00:06:22;;;;;;;23.90;10.50;;;;;;;0.07;45.91;100121.09;106910;1263;66623;-38
2024/03/12 00:08:50;;;;;;;21.30;10.90;;;;;;;0.09;46.14;100120.18;106855;1264;72489;-37
2024/03/12 00:11:18;;;;;;;18.50;10.40;;;;;;;0.10;45.77;100118.15;106866;1264;60289;-37
2024/03/12 00:13:46;;;;;;;19.20;10.60;;;;;;;0.10;45.90;100117.24;106878;1266;60005;-37
2024/03/12 00:16:14;;;;;;;21.70;10.60;;;;;;;0.10;45.92;100114.48;106759;1262;71764;-37
2024/03/12 00:18:41;;;;;;;23.40;10.80;;;;;;;0.10;46.01;100116.66;106103;1263;1002744;-37
2024/03/12 00:21:10;;;;;;;21.00;10.30;;;;;;;0.11;45.87;100113.83;106891;1264;71686;-37
2024/03/12 00:23:41;;;;;;;24.30;11.20;;;;;;;0.12;45.72;100115.80;106865;1266;59998;-37
2024/03/12 00:26:10;;;;;;;20.00;10.70;;;;;;;0.13;45.86;100111.64;106865;1263;59995;-37
2024/03/12 00:28:38;;;;;;;21.60;11.20;;;;;;;0.15;46.04;100115.41;106867;1266;73038;-37
2024/03/12 00:31:05;;;;;;;19.40;10.60;;;;;;;0.16;45.76;100112.69;106029;1264;1005169;-37
2024/03/12 00:33:33;;;;;;;19.10;11.30;;;;;;;0.17;45.87;100110.93;106740;1264;72706;-37
2024/03/12 00:36:01;;;;;;;19.80;10.90;;;;;;;0.19;45.80;100110.61;106800;1263;59634;-37
2024/03/12 00:38:29;;;;;;;19.00;10.70;;;;;;;0.20;45.80;100110.22;106770;1263;59576;-37
2024/03/12 00:40:57;;;;;;;24.30;10.90;;;;;;;0.21;45.80;100105.79;106781;1263;73054;-38
2024/03/12 00:43:24;;;;;;;23.70;11.40;;;;;;;0.22;45.92;100106.70;106723;1264;67544;-37
2024/03/12 00:45:53;;;;;;;22.90;10.90;;;;;;;0.21;45.77;100104.14;106764;1266;71824;-37
2024/03/12 00:48:21;;;;;;;22.30;10.60;;;;;;;0.23;45.76;100102.11;106714;1265;59634;-37
2024/03/12 00:50:49;;;;;;;22.90;11.90;;;;;;;0.26;45.67;100105.29;106811;1263;59994;-37
2024/03/12 00:53:17;;;;;;;23.20;11.30;;;;;;;0.27;45.63;100097.08;106033;1263;1003015;-37
2024/03/12 00:55:47;;;;;;;21.20;11.00;;;;;;;0.29;45.65;100097.55;106783;1264;67528;-37
2024/03/12 00:58:15;;;;;;;20.10;10.70;;;;;;;0.31;45.68;100097.16;106831;1264;71925;-37
2024/03/12 01:00:45;;;;;;;22.60;11.20;;;;;;;0.33;45.81;100099.94;106800;1263;59468;-38
2024/03/12 01:03:13;;;;;;;21.70;12.20;;;;;;;0.33;45.65;100096.47;106827;1263;59528;-37
2024/03/12 01:05:42;;;;;;;23.10;11.60;;;;;;;0.33;45.61;100098.06;106823;1268;72537;-37
2024/03/12 01:08:11;;;;;;;23.80;10.40;;;;;;;0.33;45.61;100097.22;106046;1264;1003382;-37
2024/03/12 01:10:39;;;;;;;21.80;11.80;;;;;;;0.33;45.79;100094.61;106787;1268;73158;-37
2024/03/12 01:13:08;;;;;;;21.00;11.00;;;;;;;0.33;45.87;100092.69;106811;1263;59573;-37
2024/03/12 01:15:39;;;;;;;24.00;11.30;;;;;;;0.33;45.87;100091.58;105994;1264;1003464;-38
2024/03/12 01:18:10;;;;;;;21.00;11.80;;;;;;;0.33;45.78;100089.53;106769;1264;73050;-37
2024/03/12 01:20:39;;;;;;;22.50;11.60;;;;;;;0.33;45.91;100087.77;106900;1263;67870;-37
2024/03/12 01:23:07;;;;;;;23.80;11.00;;;;;;;0.33;45.78;100084.79;106786;1263;72760;-37
2024/03/12 01:25:35;;;;;;;24.00;12.10;;;;;;;0.34;45.78;100082.38;106782;1264;59519;-37
2024/03/12 01:28:05;;;;;;;20.80;11.40;;;;;;;0.34;46.08;100084.08;106857;1262;60001;-37
2024/03/12 01:30:36;;;;;;;21.60;11.20;;;;;;;0.34;45.87;100084.29;106039;1263;1003521;-37
2024/03/12 01:33:07;;;;;;;27.80;10.90;;;;;;;0.33;46.11;100082.45;106817;1262;67938;-37
2024/03/12 01:35:38;;;;;;;18.60;11.30;;;;;;;0.33;46.16;100080.95;106864;1262;71417;-37
2024/03/12 01:38:08;;;;;;;27.60;11.80;;;;;;;0.33;46.17;100082.43;106899;1264;59515;-37
2024/03/12 01:40:39;;;;;;;21.20;11.10;;;;;;;0.34;46.11;100082.33;106109;1267;1003144;-37
2024/03/12 01:43:07;;;;;;;25.20;11.80;;;;;;;0.35;45.92;100076.92;106856;1264;71819;-37
2024/03/12 01:45:35;;;;;;;21.30;11.10;;;;;;;0.36;46.24;100076.34;106842;1263;67589;-37
2024/03/12 01:48:08;;;;;;;22.80;11.00;;;;;;;0.38;46.47;100072.92;106848;1264;72677;-38
2024/03/12 01:50:41;;;;;;;25.60;12.10;;;;;;;0.40;46.35;100070.77;106831;1264;60098;-38
2024/03/12 01:53:10;;;;;;;22.70;12.30;;;;;;;0.41;46.21;100068.52;106838;1264;60074;-38
2024/03/12 01:55:41;;;;;;;25.40;11.30;;;;;;;0.42;46.33;100063.52;106050;1263;1003713;-37
2024/03/12 01:58:17;;;;;;;21.80;11.50;;;;;;;0.45;46.26;100064.49;106798;1264;66775;-37
2024/03/12 02:00:45;;;;;;;21.40;12.50;;;;;;;0.48;46.42;100062.24;106796;1263;72724;-37
2024/03/12 02:03:18;;;;;;;19.20;9.10;;;;;;;0.51;46.13;100063.35;107106;1260;59788;-37
2024/03/12 02:05:46;;;;;;;23.20;11.30;;;;;;;0.52;46.14;100060.90;107000;1260;59706;-37
2024/03/12 02:08:15;;;;;;;24.00;11.70;;;;;;;0.54;46.05;100056.27;106923;1260;73093;-37
2024/03/12 02:10:43;;;;;;;24.70;11.40;;;;;;;0.56;45.98;100059.21;106904;1260;67577;-37
2024/03/12 02:13:10;;;;;;;22.50;10.90;;;;;;;0.58;45.99;100059.84;107007;1260;73192;-37
2024/03/12 02:15:38;;;;;;;21.20;11.10;;;;;;;0.61;46.00;100063.40;107018;1260;59715;-38
2024/03/12 02:18:08;;;;;;;21.90;11.40;;;;;;;0.63;45.95;100062.33;107023;1265;59555;-37
2024/03/12 02:20:37;;;;;;;22.70;11.40;;;;;;;0.66;45.87;100060.70;107068;1260;73025;-37
2024/03/12 02:23:05;;;;;;;17.00;10.50;;;;;;;0.68;45.87;100057.85;106989;1260;66749;-37
2024/03/12 02:25:33;;;;;;;22.00;11.20;;;;;;;0.69;45.77;100058.11;106905;1261;71456;-38
2024/03/12 02:28:02;;;;;;;25.90;10.90;;;;;;;0.72;45.77;100060.02;107005;1260;60402;-37
2024/03/12 02:30:30;;;;;;;;;;;;;;;0.72;45.60;100059.00;107031;1260;59596;-38
2024/03/12 02:32:58;;;;;;;20.70;10.70;;;;;;;0.74;45.39;100054.83;107017;1260;73938;-38
2024/03/12 02:35:26;;;;;;;22.00;11.20;;;;;;;0.73;45.44;100050.23;107024;1260;66274;-37
2024/03/12 02:37:53;;;;;;;22.50;11.00;;;;;;;0.75;45.46;100052.48;106984;1260;71395;-37
2024/03/12 02:40:21;;;;;;;22.30;11.90;;;;;;;0.76;45.53;100050.92;106933;1263;60459;-37
2024/03/12 02:42:49;;;;;;;20.40;11.20;;;;;;;0.77;45.31;100052.19;106998;1260;60383;-37
2024/03/12 02:45:20;;;;;;;23.20;11.60;;;;;;;0.78;45.44;100048.87;106988;1260;73879;-37
2024/03/12 02:47:48;;;;;;;18.80;10.90;;;;;;;0.79;45.34;100049.50;106160;1260;1003006;-38
2024/03/12 02:50:18;;;;;;;24.30;11.10;;;;;;;0.82;45.46;100045.64;106991;1260;72749;-37
2024/03/12 02:52:46;;;;;;;23.60;10.90;;;;;;;0.84;45.32;100042.74;106316;1260;1003043;-38
2024/03/12 02:55:14;;;;;;;24.60;11.50;;;;;;;0.86;45.63;100040.82;106265;1260;1003002;-38
2024/03/12 02:57:41;;;;;;;20.60;10.30;;;;;;;0.87;45.15;100038.60;106906;1260;74416;-37
2024/03/12 03:00:14;;;;;;;19.60;10.40;;;;;;;0.88;45.07;100037.10;106164;1260;1003234;-37
2024/03/12 03:02:43;;;;;;;17.40;9.80;;;;;;;0.89;45.35;100034.96;106917;1260;72831;-38
2024/03/12 03:05:13;;;;;;;25.10;11.90;;;;;;;0.91;45.07;100032.66;106211;1260;1003639;-37
2024/03/12 03:07:41;;;;;;;18.20;8.00;;;;;;;0.93;45.21;100031.23;107072;1260;60342;-38
2024/03/12 03:10:09;;;;;;;18.30;11.10;;;;;;;0.93;45.25;100028.89;106972;1260;73806;-37
2024/03/12 03:12:39;;;;;;;22.10;10.60;;;;;;;0.93;45.36;100022.49;106933;1261;66583;-37
2024/03/12 03:15:11;;;;;;;22.00;11.00;;;;;;;0.95;45.17;100024.78;106979;1265;72685;-37
2024/03/12 03:17:45;;;;;;;21.50;11.10;;;;;;;0.95;45.17;100019.91;107084;1261;60447;-37
2024/03/12 03:20:16;;;;;;;20.10;10.60;;;;;;;0.95;45.26;100020.13;106937;1265;60332;-38
2024/03/12 03:22:47;;;;;;;18.50;10.40;;;;;;;0.95;45.29;100016.29;106981;1260;73883;-37
2024/03/12 03:25:14;;;;;;;24.60;10.80;;;;;;;0.94;45.33;100015.55;107263;1260;66291;-37
2024/03/12 03:27:43;;;;;;;20.30;11.00;;;;;;;0.92;45.12;100013.05;107272;1254;72757;-37
2024/03/12 03:30:17;;;;;;;20.30;10.50;;;;;;;0.91;45.27;100013.70;107269;1257;60489;-38
2024/03/12 03:32:45;;;;;;;22.30;10.90;;;;;;;0.90;45.32;100012.33;107312;1254;60357;-38
2024/03/12 03:35:14;;;;;;;19.40;10.90;;;;;;;0.90;45.47;100012.64;107293;1254;73881;-38
2024/03/12 03:37:42;;;;;;;22.80;11.20;;;;;;;0.91;45.43;100005.48;107323;1254;67763;-37
2024/03/12 03:40:11;;;;;;;25.20;11.50;;;;;;;0.91;45.58;100002.98;107266;1260;72342;-37
2024/03/12 03:42:41;;;;;;;16.20;8.40;;;;;;;0.90;45.71;100001.81;107277;1257;59852;-38
2024/03/12 03:45:09;;;;;;;;;;;;;;;0.89;45.74;100002.19;107265;1254;60479;-37
2024/03/12 03:47:37;;;;;;;25.20;11.90;;;;;;;0.87;45.82;99999.33;107245;1254;73845;-37
2024/03/12 03:50:07;;;;;;;23.50;11.90;;;;;;;0.84;45.84;99999.98;107217;1261;67878;-38
2024/03/12 03:52:36;;;;;;;18.40;11.20;;;;;;;0.80;45.81;99997.08;107284;1254;71392;-38
2024/03/12 03:55:06;;;;;;;24.20;12.00;;;;;;;0.76;46.19;99995.09;107221;1261;60348;-38
2024/03/12 03:57:33;;;;;;;21.80;11.70;;;;;;;0.72;46.36;99996.89;107342;1256;60345;-37
2024/03/12 04:00:12;;;;;;;23.20;11.40;;;;;;;0.68;46.28;99994.98;107251;1255;74147;-37
2024/03/12 04:02:43;;;;;;;23.60;12.70;;;;;;;0.65;46.49;99990.52;107265;1256;67618;-38
2024/03/12 04:05:11;;;;;;;23.00;11.80;;;;;;;0.62;46.51;99986.61;106456;1254;1002949;-37
2024/03/12 04:07:40;;;;;;;23.50;11.60;;;;;;;0.58;46.60;99990.95;107298;1257;60410;-38
2024/03/12 04:10:11;;;;;;;21.90;11.90;;;;;;;0.55;46.66;99987.56;107274;1256;59580;-38
2024/03/12 04:12:46;;;;;;;25.80;12.70;;;;;;;0.50;46.84;99987.11;107262;1254;73878;-38
2024/03/12 04:15:14;;;;;;;25.40;12.50;;;;;;;0.47;46.91;99987.14;107283;1255;67591;-38
2024/03/12 04:17:43;;;;;;;23.30;12.40;;;;;;;0.45;47.14;99985.92;107294;1257;71441;-38
2024/03/12 04:20:12;;;;;;;22.80;12.30;;;;;;;0.43;47.15;99984.87;107280;1254;60369;-38
2024/03/12 04:22:43;;;;;;;25.80;12.70;;;;;;;0.41;47.18;99982.38;107257;1255;60475;-37
2024/03/12 04:25:12;;;;;;;23.10;12.30;;;;;;;0.38;47.21;99984.73;107257;1257;73950;-37
2024/03/12 04:27:40;;;;;;;22.00;12.10;;;;;;;0.37;47.36;99982.35;107157;1254;66297;-37
2024/03/12 04:30:11;;;;;;;23.10;12.30;;;;;;;0.37;47.24;99982.19;107230;1257;71391;-37
2024/03/12 04:32:39;;;;;;;21.30;12.50;;;;;;;0.36;47.13;99980.65;107257;1257;60561;-37
2024/03/12 04:35:12;;;;;;;21.30;11.10;;;;;;;0.36;47.24;99979.42;107234;1257;60296;-37
2024/03/12 04:37:41;;;;;;;24.00;11.40;;;;;;;0.34;47.52;99980.16;107276;1257;73903;-38
2024/03/12 04:40:11;;;;;;;24.20;11.40;;;;;;;0.34;47.56;99976.71;107312;1254;66756;-37
2024/03/12 04:42:39;;;;;;;20.90;11.80;;;;;;;0.34;47.63;99980.22;107218;1254;72680;-37
2024/03/12 04:45:08;;;;;;;27.20;12.80;;;;;;;0.34;47.64;99976.59;107181;1254;60320;-37
2024/03/12 04:47:37;;;;;;;24.90;12.50;;;;;;;0.35;47.72;99982.83;106561;1254;1002882;-37
2024/03/12 04:50:07;;;;;;;;;;;;;;;0.36;47.68;99977.77;107223;1254;73855;-37
2024/03/12 04:52:36;;;;;;;26.10;12.00;;;;;;;0.35;47.91;99976.11;107246;1257;67766;-38
2024/03/12 04:55:05;;;;;;;29.40;13.00;;;;;;;0.34;47.99;99981.67;107305;1262;71460;-38
2024/03/12 04:57:35;;;;;;;31.80;12.60;;;;;;;0.34;48.12;99981.89;107273;1257;60328;-37
2024/03/12 05:00:22;;;;;;;23.90;12.20;;;;;;;0.34;48.10;99984.55;107274;1255;60443;-37
2024/03/12 05:02:49;;;;;;;23.90;12.00;;;;;;;0.33;48.41;99983.66;107304;1261;73872;-37
2024/03/12 05:05:19;;;;;;;21.40;11.20;;;;;;;0.34;48.63;99989.20;107264;1254;67563;-37
2024/03/12 05:07:47;;;;;;;26.00;12.60;;;;;;;0.35;48.62;99985.45;107155;1257;72648;-38
2024/03/12 05:10:16;;;;;;;25.00;12.70;;;;;;;0.35;48.64;99984.02;107347;1254;60421;-38
2024/03/12 05:12:44;;;;;;;27.70;11.90;;;;;;;0.35;48.83;99985.62;107337;1254;60436;-37
2024/03/12 05:15:12;;;;;;;24.00;11.90;;;;;;;0.36;48.97;99985.33;107238;1254;73883;-38
2024/03/12 05:17:39;;;;;;;23.20;11.90;;;;;;;0.36;48.86;99985.50;107270;1261;66607;-37
2024/03/12 05:20:11;;;;;;;22.60;12.00;;;;;;;0.37;48.98;99990.89;106532;1257;1003020;-37
2024/03/12 05:22:38;;;;;;;23.60;12.00;;;;;;;0.38;48.77;99989.82;107274;1257;60552;-37
2024/03/12 05:25:19;;;;;;;21.60;11.40;;;;;;;0.39;48.97;99993.10;107296;1257;60971;-37
2024/03/12 05:27:47;;;;;;;24.50;11.70;;;;;;;0.41;49.30;99992.94;107171;1256;73843;-37
2024/03/12 05:30:15;;;;;;;23.30;12.40;;;;;;;0.43;49.16;99994.90;107210;1257;67416;-38
2024/03/12 05:32:46;;;;;;;32.00;12.50;;;;;;;0.44;49.18;99995.31;107177;1257;73117;-37
2024/03/12 05:35:20;;;;;;;26.40;12.80;;;;;;;0.43;49.63;99994.85;107198;1254;60429;-37
2024/03/12 05:40:40;;;;;;;23.90;12.50;;;;;;;0.42;50.24;99992.52;107053;1258;72915;-38
2024/03/12 05:48:41;;;;;;;25.90;12.40;;;;;;;0.52;50.28;100000.50;107237;1255;60347;-38
2024/03/12 05:51:08;;;;;;;23.60;12.40;;;;;;;0.52;50.34;100000.18;107226;1257;62198;-37
2024/03/12 05:53:37;;;;;;;26.20;12.20;;;;;;;0.53;50.28;99998.84;107199;1257;74216;-38
2024/03/12 05:56:07;;;;;;;23.10;12.70;;;;;;;0.52;50.35;99998.48;106427;1254;1002933;-37
2024/03/12 05:58:35;;;;;;;25.80;12.60;;;;;;;0.53;50.49;100001.77;105740;1262;1003679;-37
2024/03/12 06:01:04;;;;;;;25.60;11.90;;;;;;;0.55;51.02;100002.02;107200;1257;60411;-37
2024/03/12 06:03:32;;;;;;;24.10;13.10;;;;;;;0.56;51.22;100004.95;107248;1257;60405;-37
2024/03/12 06:06:00;;;;;;;25.90;13.40;;;;;;;0.55;51.38;100007.56;107255;1256;73847;-37
2024/03/12 06:08:27;;;;;;;27.90;13.60;;;;;;;0.55;52.02;100003.67;107310;1257;67605;-38
2024/03/12 06:10:55;;;;;;;22.20;12.80;;;;;;;0.56;52.22;100001.96;107256;1258;71686;-37
2024/03/12 06:13:24;;;;;;;28.40;13.20;;;;;;;0.56;52.43;100002.92;106518;1254;1003075;-37
2024/03/12 06:15:51;;;;;;;22.70;13.40;;;;;;;0.60;53.02;100003.52;107344;1262;60461;-37
2024/03/12 06:18:19;;;;;;;22.80;12.60;;;;;;;0.63;53.41;100001.80;106536;1257;1003196;-37
2024/03/12 06:20:47;;;;;;;26.00;14.00;;;;;;;0.66;53.47;100000.23;107242;1257;65523;-37
2024/03/12 06:23:15;;;;;;;23.70;13.40;;;;;;;0.67;54.27;99998.47;107280;1257;72685;-37
2024/03/12 06:25:42;;;;;;;26.40;14.10;;;;;;;0.67;54.32;100003.76;107306;1257;60642;-37
2024/03/12 06:28:11;;;;;;;28.60;14.90;;;;;;;0.65;54.52;100002.53;106475;1256;1003179;-38
2024/03/12 06:30:39;;;;;;;28.60;15.10;;;;;;;0.64;54.82;100002.33;107158;1257;73897;-38
2024/03/12 06:33:06;;;;;;;27.70;13.60;;;;;;;0.65;55.39;99995.81;107184;1257;67570;-37
2024/03/12 06:35:35;;;;;;;28.50;13.80;;;;;;;0.65;55.59;99998.27;107286;1263;70302;-37
2024/03/12 06:38:06;;;;;;;23.80;13.50;;;;;;;0.66;55.93;100001.04;106484;1258;1003522;-37
2024/03/12 06:40:34;;;;;;;27.90;14.60;;;;;;;0.68;55.95;100004.70;107265;1256;60418;-37
2024/03/12 06:43:02;;;;;;;24.20;14.20;;;;;;;0.69;55.92;100006.50;107243;1257;73875;-37
2024/03/12 06:45:30;;;;;;;25.40;14.00;;;;;;;0.71;56.27;100005.75;106558;1257;1003782;-37
2024/03/12 06:48:00;;;;;;;25.40;14.00;;;;;;;0.73;56.90;100005.95;107258;1262;72648;-37
2024/03/12 06:50:28;;;;;;;27.80;13.90;;;;;;;0.73;57.01;100008.50;107254;1260;60600;-37
2024/03/12 06:52:55;;;;;;;28.80;15.10;;;;;;;0.74;56.69;100009.45;106522;1258;1003247;-37
2024/03/12 06:55:27;;;;;;;24.60;14.60;;;;;;;0.72;56.88;100009.33;106552;1257;1003341;-37
2024/03/12 06:57:59;;;;;;;27.00;14.80;;;;;;;0.71;57.21;100009.48;106568;1260;1003643;-37
2024/03/12 07:00:44;;;;;;;25.00;14.60;;;;;;;0.73;57.40;100012.66;107290;1257;72665;-37
2024/03/12 07:03:14;;;;;;;32.80;15.70;;;;;;;0.75;57.47;100007.10;107253;1257;60583;-37
2024/03/12 07:05:45;;;;;;;29.20;14.70;;;;;;;0.76;57.60;100006.04;107311;1257;60315;-37
2024/03/12 07:08:14;;;;;;;27.50;14.10;;;;;;;0.77;57.34;100006.25;107083;1264;73842;-37
2024/03/12 07:10:42;;;;;;;30.70;15.40;;;;;;;0.77;57.35;100011.05;106515;1257;1003350;-38
2024/03/12 07:13:09;;;;;;;29.50;15.30;;;;;;;0.75;57.70;100007.75;107287;1263;73047;-38
2024/03/12 07:15:39;;;;;;;24.70;14.30;;;;;;;0.77;57.72;100008.64;107243;1257;60241;-38
2024/03/12 07:18:07;;;;;;;33.50;15.80;;;;;;;0.79;57.94;100006.16;107274;1261;60293;-37
2024/03/12 07:20:35;;;;;;;27.10;14.70;;;;;;;0.81;58.10;100008.13;107308;1257;73847;-37
2024/03/12 07:23:04;;;;;;;26.30;15.50;;;;;;;0.87;57.77;100006.53;107290;1256;67186;-37
2024/03/12 07:25:32;;;;;;;28.40;15.80;;;;;;;0.93;57.68;100006.68;107255;1258;71395;-38
2024/03/12 07:28:06;;;;;;;28.90;14.20;;;;;;;0.95;57.84;100008.76;107257;1257;60393;-37
2024/03/12 07:30:35;;;;;;;28.70;14.10;;;;;;;0.97;57.81;100009.81;107277;1261;60428;-37
2024/03/12 07:33:04;;;;;;;24.10;14.20;;;;;;;0.98;58.04;100014.76;107239;1256;76139;-38
2024/03/12 07:35:35;;;;;;;27.40;15.10;;;;;;;0.99;57.93;100017.21;107274;1257;65838;-38
2024/03/12 07:38:03;;;;;;;31.00;14.90;;;;;;;1.01;57.92;100015.96;107229;1258;72687;-38
2024/03/12 07:40:32;;;;;;;28.20;15.70;;;;;;;1.04;58.14;100014.23;107282;1256;60753;-38
2024/03/12 07:42:59;;;;;;;30.10;15.30;;;;;;;1.07;58.43;100013.30;107245;1257;60751;-38
2024/03/12 07:45:27;;;;;;;26.00;14.90;;;;;;;1.08;58.47;100011.10;107308;1258;73922;-38
2024/03/12 07:47:55;;;;;;;26.90;14.80;;;;;;;1.10;58.33;100014.88;107296;1261;69236;-38
2024/03/12 07:50:30;;;;;;;30.00;15.10;;;;;;;1.14;58.56;100011.74;107249;1260;72796;-38
2024/03/12 07:52:58;;;;;;;30.00;15.40;;;;;;;1.16;58.63;100007.13;107260;1257;60306;-38
2024/03/12 07:55:28;;;;;;;27.10;15.30;;;;;;;1.18;58.48;100006.73;107283;1262;59642;-38
2024/03/12 07:57:56;;;;;;;25.20;14.70;;;;;;;1.20;58.68;100004.70;107304;1257;73077;-38
2024/03/12 08:00:24;;;;;;;27.60;14.70;;;;;;;1.29;58.45;100005.52;107256;1257;68042;-38
2024/03/12 08:02:52;;;;;;;25.10;14.40;;;;;;;1.37;58.26;100009.06;107247;1258;73012;-38
2024/03/12 08:05:20;;;;;;;25.90;15.00;;;;;;;1.41;58.04;100004.31;107256;1257;60515;-38
2024/03/12 08:07:47;;;;;;;30.90;15.50;;;;;;;1.46;57.87;100004.27;107272;1257;61103;-38
2024/03/12 08:10:15;;;;;;;29.20;15.00;;;;;;;1.50;58.02;100004.64;107309;1261;73999;-36
2024/03/12 08:12:43;;;;;;;27.60;15.10;;;;;;;1.53;57.68;100006.23;107322;1258;66763;-37
2024/03/12 08:15:13;;;;;;;29.10;14.70;;;;;;;1.55;57.80;100006.21;107607;1256;71956;-37
2024/03/12 08:17:41;;;;;;;28.00;15.50;;;;;;;1.57;57.66;100007.04;107632;1251;59792;-36
2024/03/12 08:20:13;;;;;;;30.00;15.80;;;;;;;1.62;57.53;100014.77;107694;1251;62215;-37
2024/03/12 08:22:41;;;;;;;27.00;15.60;;;;;;;1.67;57.70;100012.58;107609;1256;72672;-37
2024/03/12 08:25:12;;;;;;;34.50;16.80;;;;;;;1.74;57.20;100015.23;107671;1257;67779;-37
2024/03/12 08:27:40;;;;;;;29.50;15.60;;;;;;;1.79;57.08;100007.54;107622;1254;72795;-37
2024/03/12 08:30:08;;;;;;;27.20;15.50;;;;;;;1.83;56.77;100010.44;107607;1257;60446;-37
2024/03/12 08:32:36;;;;;;;27.90;15.00;;;;;;;1.86;56.51;100007.73;107582;1257;60440;-38
2024/03/12 08:35:05;;;;;;;27.30;15.90;;;;;;;1.88;56.54;100003.15;107589;1253;73623;-37
2024/03/12 08:37:33;;;;;;;29.50;16.00;;;;;;;1.91;56.95;100000.48;107632;1251;70128;-37
2024/03/12 08:40:07;;;;;;;28.90;16.60;;;;;;;1.95;57.28;100003.75;107511;1256;71196;-37
2024/03/12 08:42:35;;;;;;;28.70;16.80;;;;;;;2.00;57.41;100006.73;107704;1253;60386;-37
2024/03/12 08:45:17;;;;;;;28.00;15.40;;;;;;;2.02;57.42;100006.98;107649;1251;60329;-37
2024/03/12 08:47:49;;;;;;;29.50;16.60;;;;;;;2.02;58.06;100011.80;107673;1251;74808;-36
2024/03/12 08:50:17;;;;;;;28.20;16.60;;;;;;;2.03;58.52;100010.23;107651;1256;68259;-37
2024/03/12 08:52:46;;;;;;;29.60;17.20;;;;;;;2.04;58.53;100008.98;107661;1257;72786;-37
2024/03/12 08:55:13;;;;;;;27.40;16.00;;;;;;;2.05;59.17;100003.63;107657;1259;61809;-37
2024/03/12 08:57:41;;;;;;;31.00;16.40;;;;;;;2.13;59.03;100005.88;107646;1251;62513;-37
2024/03/12 09:00:13;;;;;;;32.20;15.60;;;;;;;2.18;59.16;100005.86;107687;1251;75991;-37
2024/03/12 09:02:41;;;;;;;29.20;16.90;;;;;;;2.19;59.31;100005.69;107680;1257;70209;-37
2024/03/12 09:05:09;;;;;;;32.10;17.50;;;;;;;2.17;59.63;100004.00;107676;1257;74722;-37
2024/03/12 09:07:37;;;;;;;30.20;17.20;;;;;;;2.16;59.94;100002.63;107662;1257;61404;-38
2024/03/12 09:10:11;;;;;;;32.70;17.90;;;;;;;2.15;60.14;100003.39;107683;1251;60322;-37
2024/03/12 09:12:40;;;;;;;27.80;17.70;;;;;;;2.14;60.27;100001.73;107632;1251;73071;-38
2024/03/12 09:15:09;;;;;;;28.30;14.70;;;;;;;2.13;60.47;100001.98;106937;1257;1004914;-38
2024/03/12 09:17:41;;;;;;;29.60;17.00;;;;;;;2.16;60.40;100001.17;107663;1257;70867;-38
2024/03/12 09:20:10;;;;;;;28.30;16.90;;;;;;;2.25;60.30;99999.94;107635;1254;60404;-37
2024/03/12 09:22:39;;;;;;;29.40;16.30;;;;;;;2.28;60.00;100001.08;107659;1257;62145;-38
2024/03/12 09:25:08;;;;;;;26.70;16.00;;;;;;;2.30;59.81;100000.19;107668;1256;72561;-37
2024/03/12 09:27:37;;;;;;;19.10;12.00;;;;;;;2.35;59.58;100000.66;107694;1256;70234;-37
2024/03/12 09:30:07;;;;;;;33.00;17.50;;;;;;;2.40;59.18;100001.98;107596;1257;73051;-38
2024/03/12 09:32:34;;;;;;;;;;;;;;;2.44;58.77;100002.70;106879;1257;1003119;-37
2024/03/12 09:35:05;;;;;;;30.40;18.00;;;;;;;2.46;58.29;100000.24;107606;1251;60313;-38
2024/03/12 09:37:35;;;;;;;27.60;15.90;;;;;;;2.46;57.97;99998.10;107677;1257;75933;-38
2024/03/12 09:40:07;;;;;;;29.90;17.10;;;;;;;2.48;57.95;99995.23;107685;1251;68977;-37
2024/03/12 09:42:37;;;;;;;29.60;18.00;;;;;;;2.53;57.88;99994.98;107654;1257;72775;-37
2024/03/12 09:45:07;;;;;;;29.40;18.00;;;;;;;2.57;56.89;99994.02;107667;1254;60392;-38
2024/03/12 09:47:35;;;;;;;28.10;17.50;;;;;;;2.58;56.67;99994.42;107702;1251;60422;-37
2024/03/12 09:50:06;;;;;;;28.10;17.70;;;;;;;2.61;56.33;99987.39;107655;1251;72726;-38
2024/03/12 09:52:34;;;;;;;32.10;17.30;;;;;;;2.63;55.84;99990.77;107671;1256;67791;-38
2024/03/12 09:55:01;;;;;;;31.90;17.30;;;;;;;2.65;55.70;99985.39;107535;1257;75132;-38
2024/03/12 09:57:29;;;;;;;30.20;17.90;;;;;;;2.66;55.17;99981.85;106888;1256;1002945;-37
2024/03/12 09:59:57;;;;;;;29.10;17.90;;;;;;;2.66;55.40;99981.94;107626;1257;62239;-38
2024/03/12 10:02:24;;;;;;;30.50;18.50;;;;;;;2.68;55.29;99980.68;107542;1251;74252;-38
2024/03/12 10:04:54;;;;;;;29.90;17.70;;;;;;;2.70;55.04;99977.70;107679;1257;66541;-38
2024/03/12 10:07:24;;;;;;;30.60;18.80;;;;;;;2.74;55.25;99977.68;107688;1254;72778;-38
2024/03/12 10:09:52;;;;;;;34.30;18.70;;;;;;;2.77;55.05;99977.10;107676;1257;60313;-38
2024/03/12 10:12:19;;;;;;;33.30;18.60;;;;;;;2.78;54.42;99980.63;107687;1257;60442;-38
2024/03/12 10:14:47;;;;;;;32.80;18.30;;;;;;;2.79;54.40;99974.50;107645;1258;74435;-38
2024/03/12 10:17:15;;;;;;;31.80;19.20;;;;;;;2.81;54.12;99974.64;107684;1251;67901;-38
2024/03/12 10:19:45;;;;;;;39.10;20.30;;;;;;;2.80;53.72;99968.27;107665;1251;74876;-38
2024/03/12 10:22:17;;;;;;;38.00;20.10;;;;;;;2.80;53.98;99970.76;107683;1255;60473;-37
2024/03/12 10:24:46;;;;;;;35.50;19.80;;;;;;;2.80;53.95;99971.48;107717;1251;61059;-38
2024/03/12 10:27:15;;;;;;;33.50;21.00;;;;;;;2.82;54.12;99969.20;107711;1251;72856;-38
2024/03/12 10:29:43;;;;;;;33.30;20.50;;;;;;;2.84;53.98;99967.63;107660;1256;67779;-37
2024/03/12 10:35:19;;;;;;;33.10;20.40;;;;;;;2.84;53.78;99962.58;104104;1291;600488;-37
2024/03/12 10:37:55;;;;;;;30.00;16.90;;;;;;;2.83;53.64;99963.89;106675;1266;59154;-37
2024/03/12 10:40:24;;;;;;;37.90;20.20;;;;;;;2.85;53.47;99960.27;106631;1267;60360;-37
2024/03/12 10:43:00;;;;;;;35.40;21.40;;;;;;;2.84;53.06;99960.13;106699;1270;73020;-37
2024/03/12 10:45:30;;;;;;;36.40;20.60;;;;;;;2.82;52.87;99956.67;106723;1267;68022;-37
2024/03/12 10:48:00;;;;;;;35.70;20.50;;;;;;;2.81;53.20;99953.57;106628;1264;214725;-38
2024/03/12 10:50:27;;;;;;;33.90;20.60;;;;;;;2.82;53.25;99953.17;106821;1264;59502;-37
2024/03/12 10:52:56;;;;;;;31.60;20.20;;;;;;;2.87;53.38;99952.14;106046;1267;1003719;-37
2024/03/12 10:55:24;;;;;;;25.50;15.50;;;;;;;2.91;53.38;99951.16;106816;1263;72385;-37
2024/03/12 10:57:54;;;;;;;34.80;20.40;;;;;;;2.94;53.32;99951.97;106824;1264;70320;-37
2024/03/12 11:00:25;;;;;;;32.90;20.30;;;;;;;2.94;53.00;99955.46;106857;1267;70935;-37
2024/03/12 11:02:54;;;;;;;33.30;20.60;;;;;;;2.91;52.85;99950.85;106833;1267;59641;-37
2024/03/12 11:05:24;;;;;;;33.70;20.90;;;;;;;2.88;53.19;99955.12;106786;1267;59251;-37
2024/03/12 11:07:57;;;;;;;;;;;;;;;2.86;52.85;99950.45;106847;1264;73087;-37
2024/03/12 11:10:30;;;;;;;36.80;21.40;;;;;;;2.82;52.86;99952.23;106762;1264;69009;-37
2024/03/12 11:13:01;;;;;;;33.80;20.50;;;;;;;2.79;53.14;99946.40;106835;1267;71552;-37
2024/03/12 11:15:31;;;;;;;35.10;20.60;;;;;;;2.77;53.08;99944.42;106804;1267;59745;-37
2024/03/12 11:17:59;;;;;;;35.80;19.20;;;;;;;2.77;53.43;99943.36;106783;1264;59571;-37
2024/03/12 11:20:27;;;;;;;31.30;20.50;;;;;;;2.78;53.03;99941.20;106790;1264;72302;-37
2024/03/12 11:22:56;;;;;;;33.50;20.00;;;;;;;2.78;53.27;99941.64;106750;1264;66533;-37
2024/03/12 11:25:43;;;;;;;31.30;19.50;;;;;;;2.77;53.30;99939.98;106747;1264;71645;-37
2024/03/12 11:28:22;;;;;;;33.80;19.60;;;;;;;2.75;53.34;99943.24;106702;1264;61444;-37
2024/03/12 11:31:04;;;;;;;31.20;19.40;;;;;;;2.72;53.44;99943.61;106800;1264;60967;-37
2024/03/12 11:33:56;;;;;;;31.10;19.90;;;;;;;2.73;53.83;99941.98;106748;1264;71843;-37